createdAt,value
2022-07-25T00:00:49.370Z,20.60
2022-07-25T00:01:53.296Z,20.52
2022-07-25T00:02:55.996Z,20.52
2022-07-25T00:03:58.652Z,20.54
2022-07-25T00:05:01.198Z,20.50
2022-07-25T00:06:03.639Z,20.42
2022-07-25T00:07:05.931Z,20.57
2022-07-25T00:08:08.244Z,20.72
2022-07-25T00:09:10.561Z,20.75
2022-07-25T00:10:12.885Z,20.78
2022-07-25T00:11:15.195Z,20.86
2022-07-25T00:12:17.618Z,20.86
2022-07-25T00:13:19.971Z,20.90
2022-07-25T00:14:22.211Z,20.86
2022-07-25T00:15:24.556Z,20.88
2022-07-25T00:16:27.229Z,20.86
2022-07-25T00:17:29.537Z,20.88
2022-07-25T00:18:31.811Z,20.87
2022-07-25T00:19:34.073Z,20.90
2022-07-25T00:20:36.354Z,20.83
2022-07-25T00:21:38.655Z,20.88
2022-07-25T00:22:40.889Z,20.88
2022-07-25T00:23:43.289Z,20.83
2022-07-25T00:24:45.505Z,20.85
2022-07-25T00:25:47.770Z,20.61
2022-07-25T00:26:50.158Z,20.46
2022-07-25T00:27:52.819Z,20.42
2022-07-25T00:28:55.099Z,20.36
2022-07-25T00:29:57.355Z,20.39
2022-07-25T00:30:59.814Z,20.50
2022-07-25T00:32:02.085Z,20.62
2022-07-25T00:33:04.376Z,20.69
2022-07-25T00:34:06.942Z,20.68
2022-07-25T00:35:09.662Z,20.70
2022-07-25T00:36:12.034Z,20.67
2022-07-25T00:37:14.295Z,20.67
2022-07-25T00:38:16.581Z,20.69
2022-07-25T00:39:18.841Z,20.68
2022-07-25T00:40:21.202Z,20.64
2022-07-25T00:41:23.539Z,20.63
2022-07-25T00:42:25.822Z,20.70
2022-07-25T00:43:28.057Z,20.63
2022-07-25T00:44:32.433Z,20.72
2022-07-25T00:45:34.754Z,20.70
2022-07-25T00:46:39.254Z,20.71
2022-07-25T00:47:41.543Z,20.73
2022-07-25T00:48:44.600Z,20.74
2022-07-25T00:49:46.955Z,20.77
2022-07-25T00:50:49.187Z,20.83
2022-07-25T00:51:52.959Z,20.82
2022-07-25T00:52:55.651Z,20.85
2022-07-25T00:53:57.926Z,20.93
2022-07-25T00:55:01.006Z,20.95
2022-07-25T00:56:04.474Z,20.94
2022-07-25T00:57:06.768Z,21.04
2022-07-25T00:58:08.994Z,21.03
2022-07-25T00:59:11.517Z,21.02
2022-07-25T01:00:15.227Z,21.08
2022-07-25T01:01:17.545Z,21.11
2022-07-25T01:02:19.922Z,20.98
2022-07-25T01:03:22.255Z,20.90
2022-07-25T01:04:24.709Z,20.92
2022-07-25T01:05:27.134Z,20.63
2022-07-25T01:06:29.660Z,20.61
2022-07-25T01:07:32.714Z,20.74
2022-07-25T01:08:35.582Z,20.74
2022-07-25T01:09:38.035Z,20.74
2022-07-25T01:10:40.600Z,20.83
2022-07-25T01:11:42.914Z,20.83
2022-07-25T01:12:49.135Z,20.76
2022-07-25T01:13:51.687Z,20.75
2022-07-25T01:14:53.894Z,20.87
2022-07-25T01:15:56.237Z,20.83
2022-07-25T01:16:58.542Z,20.92
2022-07-25T01:18:00.925Z,20.81
2022-07-25T01:19:03.762Z,20.78
2022-07-25T01:20:12.532Z,20.83
2022-07-25T01:21:14.787Z,20.58
2022-07-25T01:22:17.372Z,20.54
2022-07-25T01:23:19.769Z,20.46
2022-07-25T01:24:22.056Z,20.52
2022-07-25T01:25:25.052Z,20.27
2022-07-25T01:26:27.323Z,20.16
2022-07-25T01:27:29.634Z,20.07
2022-07-25T01:28:31.871Z,19.99
2022-07-25T01:29:34.292Z,19.95
2022-07-25T01:30:38.469Z,19.86
2022-07-25T01:31:40.972Z,19.88
2022-07-25T01:37:26.543Z,20.01
2022-07-25T01:38:28.830Z,19.95
2022-07-25T01:39:31.099Z,19.96
2022-07-25T01:40:33.357Z,19.99
2022-07-25T01:41:35.574Z,20.00
2022-07-25T01:42:38.011Z,20.02
2022-07-25T01:43:40.521Z,20.01
2022-07-25T01:44:42.800Z,19.89
2022-07-25T01:45:45.162Z,19.74
2022-07-25T01:46:47.457Z,19.81
2022-07-25T01:47:49.776Z,19.93
2022-07-25T01:48:52.200Z,19.88
2022-07-25T01:49:54.498Z,19.93
2022-07-25T01:50:56.862Z,19.97
2022-07-25T01:52:00.274Z,19.97
2022-07-25T01:53:02.602Z,20.06
2022-07-25T01:54:05.865Z,20.16
2022-07-25T01:55:12.914Z,20.06
2022-07-25T01:56:15.343Z,19.89
2022-07-25T01:57:17.595Z,19.88
2022-07-25T01:58:20.370Z,19.78
2022-07-25T01:59:23.757Z,19.84
2022-07-25T02:00:26.064Z,19.90
2022-07-25T02:01:28.398Z,19.88
2022-07-25T02:02:30.738Z,19.83
2022-07-25T02:03:33.133Z,19.85
2022-07-25T02:04:36.577Z,19.74
2022-07-25T02:05:38.997Z,19.77
2022-07-25T02:06:41.490Z,19.82
2022-07-25T02:07:43.889Z,19.80
2022-07-25T02:08:46.491Z,19.78
2022-07-25T02:09:54.756Z,19.72
2022-07-25T02:10:59.244Z,19.82
2022-07-25T02:12:01.838Z,19.86
2022-07-25T02:13:04.193Z,19.92
2022-07-25T02:14:07.143Z,19.99
2022-07-25T02:15:10.044Z,20.02
2022-07-25T02:16:12.382Z,20.05
2022-07-25T02:17:14.969Z,20.06
2022-07-25T02:18:17.444Z,20.07
2022-07-25T02:19:19.667Z,20.11
2022-07-25T02:20:21.983Z,20.02
2022-07-25T02:21:26.017Z,20.06
2022-07-25T02:22:28.293Z,20.08
2022-07-25T02:23:30.486Z,20.06
2022-07-25T02:24:32.766Z,20.04
2022-07-25T02:25:35.581Z,20.03
2022-07-25T02:26:37.898Z,19.85
2022-07-25T02:27:40.269Z,19.91
2022-07-25T02:28:42.646Z,19.94
2022-07-25T02:29:44.944Z,19.95
2022-07-25T02:30:47.346Z,20.01
2022-07-25T02:31:51.810Z,19.95
2022-07-25T02:32:54.074Z,19.61
2022-07-25T02:33:56.446Z,19.69
2022-07-25T02:34:58.638Z,19.69
2022-07-25T02:36:00.887Z,19.76
2022-07-25T02:37:03.177Z,19.79
2022-07-25T02:38:05.461Z,19.75
2022-07-25T02:39:07.784Z,19.84
2022-07-25T02:40:10.580Z,19.84
2022-07-25T02:41:12.828Z,19.85
2022-07-25T02:42:15.255Z,19.88
2022-07-25T02:43:18.395Z,19.89
2022-07-25T02:44:20.640Z,19.95
2022-07-25T02:45:22.849Z,19.92
2022-07-25T02:46:25.304Z,19.71
2022-07-25T02:47:27.643Z,19.49
2022-07-25T02:48:30.152Z,19.33
2022-07-25T02:49:32.488Z,19.36
2022-07-25T02:50:35.647Z,19.45
2022-07-25T02:51:37.904Z,19.41
2022-07-25T02:52:40.213Z,19.44
2022-07-25T02:53:58.857Z,19.56
2022-07-25T02:55:04.904Z,19.57
2022-07-25T02:56:11.286Z,19.57
2022-07-25T02:57:16.788Z,19.58
2022-07-25T02:58:19.104Z,19.59
2022-07-25T02:59:21.365Z,19.58
2022-07-25T03:00:23.937Z,19.33
2022-07-25T03:01:26.872Z,19.21
2022-07-25T03:02:29.107Z,18.99
2022-07-25T03:03:31.396Z,18.98
2022-07-25T03:04:34.033Z,18.95
2022-07-25T03:05:36.456Z,19.00
2022-07-25T03:06:38.725Z,19.09
2022-07-25T03:07:42.143Z,19.21
2022-07-25T03:08:44.381Z,19.29
2022-07-25T03:09:46.591Z,19.33
2022-07-25T03:10:48.958Z,19.10
2022-07-25T03:11:52.034Z,19.01
2022-07-25T03:12:54.223Z,18.89
2022-07-25T03:13:56.575Z,18.97
2022-07-25T03:14:59.821Z,19.07
2022-07-25T03:16:02.134Z,19.19
2022-07-25T03:17:04.474Z,19.25
2022-07-25T03:18:06.881Z,19.34
2022-07-25T03:19:10.644Z,19.33
2022-07-25T03:20:13.076Z,19.30
2022-07-25T03:21:15.333Z,19.37
2022-07-25T03:22:17.703Z,19.41
2022-07-25T03:23:19.995Z,19.41
2022-07-25T03:24:22.271Z,19.31
2022-07-25T03:25:24.608Z,19.14
2022-07-25T03:26:26.876Z,18.95
2022-07-25T03:27:29.353Z,18.84
2022-07-25T03:28:31.679Z,18.88
2022-07-25T03:29:34.321Z,18.98
2022-07-25T03:30:36.584Z,19.12
2022-07-25T03:31:38.958Z,19.24
2022-07-25T03:32:41.366Z,19.06
2022-07-25T03:33:43.675Z,19.12
2022-07-25T03:34:46.179Z,18.85
2022-07-25T03:35:48.690Z,18.79
2022-07-25T03:36:50.922Z,18.78
2022-07-25T03:37:53.614Z,18.79
2022-07-25T03:38:56.674Z,18.82
2022-07-25T03:39:58.932Z,18.92
2022-07-25T03:41:01.319Z,19.00
2022-07-25T03:42:03.749Z,19.06
2022-07-25T03:43:06.098Z,19.09
2022-07-25T03:44:08.879Z,18.93
2022-07-25T03:45:11.769Z,18.82
2022-07-25T03:46:14.488Z,18.68
2022-07-25T03:47:20.521Z,18.67
2022-07-25T03:48:23.255Z,18.75
2022-07-25T03:49:25.483Z,18.63
2022-07-25T03:50:27.835Z,18.72
2022-07-25T03:51:30.160Z,18.80
2022-07-25T03:52:32.543Z,18.94
2022-07-25T03:53:55.794Z,19.00
2022-07-25T03:54:58.150Z,19.09
2022-07-25T03:56:00.453Z,19.11
2022-07-25T03:57:02.779Z,19.07
2022-07-25T03:58:05.265Z,19.14
2022-07-25T03:59:08.348Z,19.18
2022-07-25T04:00:12.482Z,19.19
2022-07-25T04:01:14.898Z,19.21
2022-07-25T04:02:17.314Z,18.90
2022-07-25T04:03:19.870Z,18.91
2022-07-25T04:04:22.200Z,19.03
2022-07-25T04:05:24.643Z,19.10
2022-07-25T04:06:27.106Z,19.15
2022-07-25T04:07:30.528Z,19.22
2022-07-25T04:08:32.811Z,19.31
2022-07-25T04:09:35.192Z,19.35
2022-07-25T04:10:37.632Z,19.33
2022-07-25T04:11:39.900Z,19.34
2022-07-25T04:12:42.137Z,19.40
2022-07-25T04:13:44.494Z,19.32
2022-07-25T04:14:46.856Z,19.13
2022-07-25T04:15:49.116Z,19.18
2022-07-25T04:16:51.574Z,19.05
2022-07-25T04:17:53.816Z,19.07
2022-07-25T04:18:57.871Z,19.04
2022-07-25T04:20:00.178Z,19.52
2022-07-25T04:21:03.437Z,20.17
2022-07-25T04:22:05.752Z,20.68
2022-07-25T04:23:08.059Z,21.15
2022-07-25T04:24:10.428Z,21.56
2022-07-25T04:25:12.696Z,21.95
2022-07-25T04:26:15.201Z,22.35
2022-07-25T04:27:17.465Z,22.85
2022-07-25T04:28:19.765Z,23.47
2022-07-25T04:29:22.030Z,24.69
2022-07-25T04:30:24.986Z,26.04
2022-07-25T04:31:27.600Z,27.27
2022-07-25T04:32:30.623Z,28.25
2022-07-25T04:33:32.902Z,29.08
2022-07-25T04:34:35.190Z,29.58
2022-07-25T04:35:37.732Z,30.28
2022-07-25T04:36:40.067Z,30.91
2022-07-25T04:37:42.393Z,31.29
2022-07-25T04:38:45.417Z,31.53
2022-07-25T04:39:47.674Z,31.81
2022-07-25T04:40:50.486Z,32.31
2022-07-25T04:41:52.802Z,31.55
2022-07-25T04:42:55.021Z,30.78
2022-07-25T04:43:57.410Z,30.86
2022-07-25T04:44:59.660Z,31.20
2022-07-25T04:46:02.099Z,31.30
2022-07-25T04:47:05.027Z,31.25
2022-07-25T04:48:07.511Z,31.30
2022-07-25T04:49:09.845Z,31.49
2022-07-25T04:50:12.902Z,31.33
2022-07-25T04:51:16.270Z,31.53
2022-07-25T04:52:18.668Z,31.78
2022-07-25T04:53:20.994Z,31.95
2022-07-25T04:54:23.227Z,32.38
2022-07-25T04:55:25.734Z,32.78
2022-07-25T04:56:28.074Z,32.70
2022-07-25T04:57:30.581Z,33.13
2022-07-25T04:58:33.105Z,33.27
2022-07-25T04:59:35.319Z,33.42
2022-07-25T05:00:38.134Z,33.72
2022-07-25T05:01:40.483Z,33.05
2022-07-25T05:02:43.496Z,32.92
2022-07-25T05:03:50.067Z,32.96
2022-07-25T05:04:53.379Z,32.99
2022-07-25T05:05:55.751Z,32.67
2022-07-25T05:06:57.989Z,32.61
2022-07-25T05:08:00.821Z,32.83
2022-07-25T05:09:03.347Z,33.06
2022-07-25T05:10:06.113Z,33.07
2022-07-25T05:11:08.429Z,33.19
2022-07-25T05:12:10.738Z,32.95
2022-07-25T05:13:12.959Z,32.71
2022-07-25T05:14:15.568Z,33.47
2022-07-25T05:15:18.023Z,33.44
2022-07-25T05:16:20.293Z,33.31
2022-07-25T05:17:22.656Z,33.53
2022-07-25T05:18:24.998Z,33.28
2022-07-25T05:19:27.240Z,32.85
2022-07-25T05:20:29.591Z,32.72
2022-07-25T05:21:32.551Z,33.18
2022-07-25T05:22:34.791Z,33.42
2022-07-25T05:23:37.089Z,33.34
2022-07-25T05:24:39.346Z,33.40
2022-07-25T05:25:41.892Z,33.39
2022-07-25T05:26:44.157Z,33.72
2022-07-25T05:27:46.470Z,33.85
2022-07-25T05:28:48.892Z,33.67
2022-07-25T05:29:51.198Z,33.73
2022-07-25T05:30:53.441Z,33.50
2022-07-25T05:31:55.812Z,33.27
2022-07-25T05:32:58.187Z,34.19
2022-07-25T05:34:00.482Z,34.17
2022-07-25T05:35:03.497Z,34.15
2022-07-25T05:36:06.192Z,34.28
2022-07-25T05:37:08.489Z,34.07
2022-07-25T05:38:10.827Z,34.45
2022-07-25T05:39:13.275Z,34.98
2022-07-25T05:40:15.613Z,35.13
2022-07-25T05:41:17.874Z,35.27
2022-07-25T05:42:20.180Z,35.19
2022-07-25T05:43:22.723Z,35.48
2022-07-25T05:44:24.981Z,35.28
2022-07-25T05:45:27.238Z,35.16
2022-07-25T05:46:32.085Z,36.20
2022-07-25T05:47:34.569Z,36.55
2022-07-25T05:48:37.424Z,35.99
2022-07-25T05:49:39.877Z,35.95
2022-07-25T05:50:42.265Z,36.01
2022-07-25T05:51:44.518Z,36.58
2022-07-25T05:52:46.857Z,36.79
2022-07-25T05:53:49.138Z,36.82
2022-07-25T05:54:51.485Z,36.33
2022-07-25T05:55:54.262Z,36.32
2022-07-25T05:56:56.616Z,36.76
2022-07-25T05:57:59.412Z,37.00
2022-07-25T05:59:01.733Z,36.88
2022-07-25T06:00:06.115Z,36.87
2022-07-25T06:01:12.341Z,37.02
2022-07-25T06:02:14.689Z,36.55
2022-07-25T06:03:18.789Z,35.88
2022-07-25T06:04:26.813Z,35.81
2022-07-25T06:05:29.572Z,36.79
2022-07-25T06:06:32.729Z,36.75
2022-07-25T06:07:35.085Z,37.30
2022-07-25T06:08:38.459Z,37.35
2022-07-25T06:09:40.673Z,36.98
2022-07-25T06:10:43.243Z,37.63
2022-07-25T06:11:54.534Z,38.13
2022-07-25T06:13:02.316Z,37.81
2022-07-25T06:14:04.900Z,38.28
2022-07-25T06:15:12.644Z,38.44
2022-07-25T06:16:25.223Z,38.73
2022-07-25T06:17:32.105Z,38.58
2022-07-25T06:18:34.970Z,38.57
2022-07-25T06:19:37.278Z,37.46
2022-07-25T06:20:39.581Z,38.39
2022-07-25T06:21:41.817Z,37.58
2022-07-25T06:22:44.085Z,37.48
2022-07-25T06:23:46.381Z,37.22
2022-07-25T06:24:48.698Z,37.34
2022-07-25T06:25:50.995Z,37.09
2022-07-25T06:26:53.273Z,38.35
2022-07-25T06:27:55.528Z,37.42
2022-07-25T06:28:57.877Z,37.65
2022-07-25T06:30:00.124Z,38.43
2022-07-25T06:31:02.605Z,36.85
2022-07-25T06:32:05.227Z,36.32
2022-07-25T06:33:07.468Z,36.31
2022-07-25T06:34:10.287Z,36.51
2022-07-25T06:35:12.886Z,36.87
2022-07-25T06:36:15.452Z,36.95
2022-07-25T06:37:17.695Z,37.15
2022-07-25T06:38:20.051Z,37.81
2022-07-25T06:39:22.326Z,36.89
2022-07-25T06:40:24.805Z,36.56
2022-07-25T06:41:27.196Z,36.08
2022-07-25T06:42:31.331Z,36.34
2022-07-25T06:43:33.553Z,37.31
2022-07-25T06:44:35.844Z,36.81
2022-07-25T06:45:38.462Z,37.23
2022-07-25T06:46:41.202Z,36.56
2022-07-25T06:47:44.371Z,37.25
2022-07-25T06:48:46.857Z,37.43
2022-07-25T06:49:49.205Z,37.01
2022-07-25T06:50:51.667Z,36.62
2022-07-25T06:51:53.944Z,36.20
2022-07-25T06:52:56.206Z,37.19
2022-07-25T06:53:58.790Z,37.13
2022-07-25T06:55:01.323Z,37.54
2022-07-25T06:56:03.922Z,37.47
2022-07-25T06:57:06.174Z,38.03
2022-07-25T06:58:08.934Z,37.58
2022-07-25T06:59:11.668Z,37.66
2022-07-25T07:00:14.558Z,37.90
2022-07-25T07:01:16.836Z,37.16
2022-07-25T07:02:19.388Z,36.49
2022-07-25T07:03:21.895Z,36.05
2022-07-25T07:04:24.254Z,35.89
2022-07-25T07:05:29.752Z,36.63
2022-07-25T07:06:32.150Z,35.59
2022-07-25T07:07:34.606Z,36.05
2022-07-25T07:08:38.657Z,37.36
2022-07-25T07:09:40.963Z,36.94
2022-07-25T07:10:43.718Z,36.35
2022-07-25T07:11:46.036Z,36.21
2022-07-25T07:12:49.474Z,35.53
2022-07-25T07:13:52.241Z,35.95
2022-07-25T07:14:54.561Z,36.97
2022-07-25T07:15:56.898Z,37.40
2022-07-25T07:16:59.249Z,36.73
2022-07-25T07:18:01.496Z,36.88
2022-07-25T07:19:04.195Z,35.90
2022-07-25T07:20:08.340Z,34.94
2022-07-25T07:21:11.684Z,34.36
2022-07-25T07:22:23.461Z,34.18
2022-07-25T07:23:25.835Z,34.26
2022-07-25T07:24:31.188Z,33.82
2022-07-25T07:25:34.350Z,32.70
2022-07-25T07:26:36.813Z,31.73
2022-07-25T07:27:39.107Z,31.90
2022-07-25T07:28:41.662Z,32.08
2022-07-25T07:29:44.086Z,32.01
2022-07-25T07:32:08.850Z,30.60
2022-07-25T07:33:11.131Z,30.38
2022-07-25T07:34:16.217Z,30.18
2022-07-25T07:35:19.247Z,29.51
2022-07-25T07:36:22.112Z,29.22
2022-07-25T07:37:24.508Z,29.37
2022-07-25T07:38:27.235Z,29.42
2022-07-25T07:39:29.521Z,29.64
2022-07-25T07:40:32.056Z,29.50
2022-07-25T07:41:34.352Z,29.30
2022-07-25T07:42:47.934Z,29.08
2022-07-25T07:43:50.210Z,28.85
2022-07-25T07:44:52.529Z,28.92
2022-07-25T07:45:56.004Z,29.05
2022-07-25T07:47:02.538Z,29.20
2022-07-25T07:48:06.234Z,29.22
2022-07-25T07:49:08.898Z,29.22
2022-07-25T07:50:11.510Z,28.97
2022-07-25T07:51:13.834Z,29.06
2022-07-25T07:52:16.133Z,28.97
2022-07-25T07:53:18.554Z,29.11
2022-07-25T07:54:39.201Z,29.37
2022-07-25T07:55:44.411Z,29.62
2022-07-25T07:56:46.731Z,29.62
2022-07-25T07:57:49.100Z,29.89
2022-07-25T07:58:51.355Z,30.08
2022-07-25T07:59:53.850Z,30.34
2022-07-25T08:00:56.193Z,30.51
2022-07-25T08:01:58.614Z,30.25
2022-07-25T08:03:01.296Z,29.94
2022-07-25T08:04:03.858Z,29.89
2022-07-25T08:05:06.729Z,30.21
2022-07-25T08:06:09.101Z,30.47
2022-07-25T08:07:11.420Z,30.54
2022-07-25T08:08:15.232Z,30.69
2022-07-25T08:09:17.580Z,30.75
2022-07-25T08:10:22.330Z,31.05
2022-07-25T08:11:26.278Z,31.24
2022-07-25T08:12:28.565Z,30.96
2022-07-25T08:13:33.978Z,30.66
2022-07-25T08:14:36.296Z,31.03
2022-07-25T08:15:38.557Z,31.25
2022-07-25T08:16:40.942Z,31.02
2022-07-25T08:17:44.880Z,30.78
2022-07-25T08:18:47.264Z,30.79
2022-07-25T08:19:49.507Z,30.64
2022-07-25T08:20:52.394Z,30.72
2022-07-25T08:21:54.637Z,30.72
2022-07-25T08:22:57.115Z,31.04
2022-07-25T08:24:00.043Z,31.17
2022-07-25T08:25:02.337Z,31.12
2022-07-25T08:26:05.623Z,31.09
2022-07-25T08:27:07.918Z,31.29
2022-07-25T08:28:10.750Z,31.56
2022-07-25T08:29:22.961Z,31.82
2022-07-25T08:30:30.021Z,31.84
2022-07-25T08:31:32.320Z,31.50
2022-07-25T08:32:34.726Z,31.59
2022-07-25T08:33:37.295Z,31.72
2022-07-25T08:34:39.617Z,32.00
2022-07-25T08:35:51.706Z,31.45
2022-07-25T08:36:54.006Z,31.50
2022-07-25T08:37:56.917Z,31.62
2022-07-25T08:38:59.635Z,31.84
2022-07-25T08:40:01.858Z,31.69
2022-07-25T08:41:05.032Z,32.00
2022-07-25T08:42:11.115Z,32.22
2022-07-25T08:43:15.590Z,32.59
2022-07-25T08:44:18.846Z,32.83
2022-07-25T08:45:22.062Z,32.77
2022-07-25T08:46:24.600Z,32.59
2022-07-25T08:47:28.817Z,32.41
2022-07-25T08:48:31.417Z,32.01
2022-07-25T08:49:35.176Z,32.41
2022-07-25T08:50:39.094Z,32.48
2022-07-25T08:51:41.632Z,32.59
2022-07-25T08:52:45.708Z,32.43
2022-07-25T08:53:48.785Z,32.26
2022-07-25T08:54:51.376Z,32.27
2022-07-25T08:55:53.667Z,32.09
2022-07-25T08:56:56.008Z,32.36
2022-07-25T08:57:58.264Z,32.56
2022-07-25T08:59:00.517Z,32.70
2022-07-25T09:00:06.233Z,33.07
2022-07-25T09:01:08.739Z,33.14
2022-07-25T09:02:15.344Z,33.34
2022-07-25T09:03:17.932Z,33.32
2022-07-25T09:04:20.728Z,33.12
2022-07-25T09:05:24.580Z,32.55
2022-07-25T09:06:26.798Z,32.77
2022-07-25T09:07:31.577Z,32.26
2022-07-25T09:08:33.914Z,32.20
2022-07-25T09:09:39.420Z,32.21
2022-07-25T09:10:48.055Z,32.26
2022-07-25T09:11:50.389Z,32.42
2022-07-25T09:13:00.689Z,32.32
2022-07-25T09:14:09.712Z,32.61
2022-07-25T09:15:27.023Z,32.85
2022-07-25T09:16:40.893Z,32.55
2022-07-25T09:17:50.349Z,32.51
2022-07-25T09:18:52.623Z,32.52
2022-07-25T09:19:56.670Z,33.08
2022-07-25T09:21:00.761Z,32.75
2022-07-25T09:22:06.325Z,33.10
2022-07-25T09:23:15.607Z,33.57
2022-07-25T09:24:18.983Z,33.50
2022-07-25T09:25:21.956Z,33.13
2022-07-25T09:26:24.616Z,33.19
2022-07-25T09:27:34.422Z,33.54
2022-07-25T09:28:43.488Z,33.25
2022-07-25T09:29:45.898Z,33.18
2022-07-25T09:30:59.563Z,33.48
2022-07-25T09:32:13.374Z,33.75
2022-07-25T09:33:15.579Z,34.21
2022-07-25T09:34:45.776Z,33.58
2022-07-25T09:35:48.265Z,33.69
2022-07-25T09:36:52.947Z,33.56
2022-07-25T09:37:55.250Z,33.61
2022-07-25T09:39:02.439Z,33.52
2022-07-25T09:40:14.050Z,33.62
2022-07-25T09:41:16.447Z,33.84
2022-07-25T09:42:27.455Z,33.92
2022-07-25T09:43:40.640Z,33.82
2022-07-25T09:44:43.109Z,33.80
2022-07-25T09:45:52.173Z,33.52
2022-07-25T09:46:54.582Z,33.16
2022-07-25T09:48:00.121Z,33.20
2022-07-25T09:49:02.500Z,32.82
2022-07-25T09:50:06.628Z,33.24
2022-07-25T09:51:08.962Z,33.43
2022-07-25T09:52:12.454Z,33.77
2022-07-25T09:53:15.127Z,34.24
2022-07-25T09:54:18.064Z,34.28
2022-07-25T09:55:21.709Z,34.11
2022-07-25T09:56:24.031Z,33.99
2022-07-25T09:57:27.585Z,34.46
2022-07-25T09:58:30.068Z,34.69
2022-07-25T09:59:38.065Z,33.62
2022-07-25T10:00:42.551Z,33.81
2022-07-25T10:01:56.450Z,33.61
2022-07-25T10:03:20.840Z,34.10
2022-07-25T10:04:52.637Z,33.96
2022-07-25T10:05:57.727Z,33.35
2022-07-25T10:07:12.123Z,33.84
2022-07-25T10:08:15.147Z,34.14
2022-07-25T10:09:17.945Z,34.05
2022-07-25T10:10:32.278Z,34.32
2022-07-25T10:11:34.695Z,34.90
2022-07-25T10:12:38.200Z,34.82
2022-07-25T10:13:40.767Z,34.65
2022-07-25T10:14:43.186Z,34.28
2022-07-25T10:15:52.989Z,34.22
2022-07-25T10:16:55.431Z,34.18
2022-07-25T10:18:06.755Z,34.25
2022-07-25T10:19:09.073Z,34.66
2022-07-25T10:20:11.838Z,34.78
2022-07-25T10:21:25.444Z,34.26
2022-07-25T10:22:55.966Z,34.28
2022-07-25T10:24:06.401Z,34.43
2022-07-25T10:25:17.350Z,34.35
2022-07-25T10:26:20.280Z,35.01
2022-07-25T10:27:23.932Z,35.27
2022-07-25T10:28:40.130Z,35.45
2022-07-25T10:29:42.722Z,35.46
2022-07-25T10:30:45.161Z,35.62
2022-07-25T10:31:51.263Z,35.83
2022-07-25T10:32:58.478Z,35.99
2022-07-25T10:34:04.685Z,35.74
2022-07-25T10:35:16.021Z,36.06
2022-07-25T10:36:20.054Z,36.12
2022-07-25T10:37:32.527Z,36.52
2022-07-25T10:38:34.841Z,36.54
2022-07-25T10:39:39.099Z,36.63
2022-07-25T10:40:46.592Z,35.82
2022-07-25T10:42:00.339Z,35.26
2022-07-25T10:43:13.892Z,35.26
2022-07-25T10:44:16.476Z,34.94
2022-07-25T10:45:18.801Z,34.91
2022-07-25T10:46:23.438Z,34.58
2022-07-25T10:47:27.477Z,34.41
2022-07-25T10:48:33.228Z,33.78
2022-07-25T10:49:37.488Z,33.92
2022-07-25T10:50:56.804Z,34.37
2022-07-25T10:52:01.489Z,34.99
2022-07-25T10:53:09.091Z,35.26
2022-07-25T10:54:18.125Z,35.00
2022-07-25T10:55:23.939Z,35.03
2022-07-25T10:56:29.231Z,34.92
2022-07-25T10:57:32.338Z,34.90
2022-07-25T10:58:51.224Z,34.62
2022-07-25T10:59:53.588Z,34.67
2022-07-25T11:00:56.036Z,33.94
2022-07-25T11:01:59.153Z,33.91
2022-07-25T11:03:01.641Z,34.07
2022-07-25T11:04:14.340Z,34.23
2022-07-25T11:05:16.705Z,34.22
2022-07-25T11:06:31.761Z,34.24
2022-07-25T11:07:36.923Z,34.67
2022-07-25T11:08:39.236Z,34.70
2022-07-25T11:09:44.574Z,34.15
2022-07-25T11:10:51.416Z,34.89
2022-07-25T11:11:57.260Z,35.64
2022-07-25T11:12:59.530Z,35.19
2022-07-25T11:14:02.227Z,34.88
2022-07-25T11:15:07.448Z,35.07
2022-07-25T11:16:10.214Z,35.04
2022-07-25T11:17:20.861Z,35.46
2022-07-25T11:18:34.334Z,35.75
2022-07-25T11:19:36.572Z,35.80
2022-07-25T11:20:38.865Z,36.10
2022-07-25T11:21:45.795Z,35.91
2022-07-25T11:22:53.613Z,35.35
2022-07-25T11:23:55.920Z,34.96
2022-07-25T11:24:59.532Z,35.16
2022-07-25T11:26:10.597Z,34.64
2022-07-25T11:27:21.856Z,34.81
2022-07-25T11:28:24.149Z,34.87
2022-07-25T11:29:29.568Z,35.26
2022-07-25T11:30:32.411Z,35.29
2022-07-25T11:31:35.645Z,35.25
2022-07-25T11:32:40.434Z,35.16
2022-07-25T11:33:47.652Z,35.55
2022-07-25T11:34:53.467Z,35.50
2022-07-25T11:36:01.118Z,34.90
2022-07-25T11:37:07.874Z,34.98
2022-07-25T11:38:13.937Z,35.55
2022-07-25T11:39:18.965Z,35.71
2022-07-25T11:40:22.867Z,35.57
2022-07-25T11:41:30.138Z,35.33
2022-07-25T11:42:47.976Z,35.01
2022-07-25T11:43:50.255Z,34.88
2022-07-25T11:44:53.125Z,35.10
2022-07-25T11:45:58.097Z,35.29
2022-07-25T11:47:00.605Z,34.75
2022-07-25T11:48:11.449Z,34.92
2022-07-25T11:49:14.956Z,34.77
2022-07-25T11:50:17.365Z,35.18
2022-07-25T11:51:19.713Z,35.55
2022-07-25T11:52:30.559Z,35.69
2022-07-25T11:53:39.841Z,35.64
2022-07-25T11:54:51.422Z,35.68
2022-07-25T11:55:53.792Z,35.99
2022-07-25T11:56:56.030Z,36.10
2022-07-25T11:58:00.954Z,35.60
2022-07-25T11:59:03.354Z,35.58
2022-07-25T12:00:19.306Z,35.05
2022-07-25T12:01:21.776Z,35.10
2022-07-25T12:02:31.114Z,35.14
2022-07-25T12:03:38.055Z,34.92
2022-07-25T12:04:40.573Z,35.05
2022-07-25T12:05:43.229Z,34.88
2022-07-25T12:06:49.109Z,34.37
2022-07-25T12:07:54.423Z,34.09
2022-07-25T12:08:56.749Z,34.34
2022-07-25T12:09:59.048Z,34.55
2022-07-25T12:11:01.353Z,34.29
2022-07-25T12:12:04.326Z,34.74
2022-07-25T12:13:08.712Z,34.44
2022-07-25T12:14:11.759Z,34.22
2022-07-25T12:15:15.471Z,34.28
2022-07-25T12:16:17.947Z,34.17
2022-07-25T12:17:20.299Z,34.49
2022-07-25T12:18:22.588Z,35.02
2022-07-25T12:19:24.863Z,35.23
2022-07-25T12:20:28.209Z,34.45
2022-07-25T12:21:30.604Z,34.73
2022-07-25T12:22:32.968Z,35.29
2022-07-25T12:23:35.375Z,35.94
2022-07-25T12:24:37.686Z,35.98
2022-07-25T12:25:42.889Z,35.46
2022-07-25T12:26:45.276Z,35.98
2022-07-25T12:27:48.048Z,36.23
2022-07-25T12:28:50.375Z,36.57
2022-07-25T12:29:52.652Z,36.33
2022-07-25T12:30:56.882Z,36.12
2022-07-25T12:31:59.569Z,35.70
2022-07-25T12:33:01.904Z,35.46
2022-07-25T12:34:04.216Z,35.34
2022-07-25T12:35:08.284Z,34.97
2022-07-25T12:36:13.791Z,35.00
2022-07-25T12:37:15.995Z,34.98
2022-07-25T12:38:18.528Z,34.78
2022-07-25T12:39:20.784Z,34.95
2022-07-25T12:40:23.175Z,34.84
2022-07-25T12:41:25.787Z,34.94
2022-07-25T12:42:30.669Z,34.66
2022-07-25T12:43:32.915Z,34.46
2022-07-25T12:44:35.168Z,34.64
2022-07-25T12:45:37.773Z,34.96
2022-07-25T12:46:44.603Z,35.61
2022-07-25T12:47:51.225Z,35.29
2022-07-25T12:48:53.571Z,35.58
2022-07-25T12:49:56.259Z,35.33
2022-07-25T12:50:58.551Z,35.49
2022-07-25T12:52:00.892Z,35.64
2022-07-25T12:53:04.420Z,35.57
2022-07-25T12:54:07.002Z,35.59
2022-07-25T12:55:12.367Z,35.74
2022-07-25T12:56:15.714Z,36.15
2022-07-25T12:57:17.926Z,36.07
2022-07-25T12:58:21.137Z,35.87
2022-07-25T12:59:23.668Z,35.96
2022-07-25T13:00:26.050Z,35.37
2022-07-25T13:01:28.417Z,35.18
2022-07-25T13:02:30.776Z,35.67
2022-07-25T13:03:33.101Z,35.71
2022-07-25T13:04:35.597Z,35.09
2022-07-25T13:05:39.948Z,35.32
2022-07-25T13:06:42.333Z,35.69
2022-07-25T13:07:44.703Z,35.64
2022-07-25T13:08:47.519Z,35.21
2022-07-25T13:09:49.865Z,35.43
2022-07-25T13:10:52.217Z,35.72
2022-07-25T13:11:55.247Z,35.81
2022-07-25T13:12:57.512Z,35.48
2022-07-25T13:14:00.059Z,35.14
2022-07-25T13:15:02.596Z,35.07
2022-07-25T13:16:05.402Z,35.28
2022-07-25T13:17:07.923Z,35.32
2022-07-25T13:18:10.330Z,35.20
2022-07-25T13:19:13.497Z,34.93
2022-07-25T13:20:15.764Z,34.78
2022-07-25T13:21:18.719Z,34.75
2022-07-25T13:22:21.052Z,34.67
2022-07-25T13:23:23.366Z,34.70
2022-07-25T13:24:25.674Z,34.74
2022-07-25T13:25:28.014Z,34.50
2022-07-25T13:26:31.337Z,34.42
2022-07-25T13:27:33.607Z,34.30
2022-07-25T13:28:36.126Z,34.34
2022-07-25T13:29:38.505Z,34.24
2022-07-25T13:30:40.775Z,34.18
2022-07-25T13:31:43.627Z,33.97
2022-07-25T13:32:46.542Z,34.11
2022-07-25T13:33:49.141Z,33.84
2022-07-25T13:34:51.428Z,33.70
2022-07-25T13:35:53.770Z,33.82
2022-07-25T13:36:56.086Z,33.88
2022-07-25T13:37:58.346Z,33.81
2022-07-25T13:39:00.739Z,33.86
2022-07-25T13:40:03.639Z,34.05
2022-07-25T13:41:06.131Z,33.78
2022-07-25T13:42:08.509Z,33.84
2022-07-25T13:43:11.990Z,33.67
2022-07-25T13:44:15.313Z,33.63
2022-07-25T13:45:17.602Z,33.61
2022-07-25T13:46:20.001Z,33.69
2022-07-25T13:47:26.909Z,33.75